Time;durP1;ratioP1;P1;durP2;ratioP2;P2;SDS_P1;SDS_P2;PMS_P1;PMS_P2;Temp;Humidity;BMP_temperature;BMP_pressure;BME280_temperature;BME280_humidity;BME280_pressure;Samples;Min_cycle;Max_cycle;Signal;HPM_P1;HPM_P2
2022/06/08 01:08:44;;;;;;;10.02;8.90;;;;;;;;;;5898530;24;20470;-87
2022/06/08 01:27:33;;;;;;;;;;;;;;;;;;;;;
2022/06/08 01:39:13;;;;;;;;;;;;;;;;;;;;;
2022/06/08 01:48:47;;;;;;;;;;;;;;;;;;;;;
2022/06/08 01:51:31;;;;;;;;;;;;;;;;;;;;;
2022/06/08 01:57:25;;;;;;;;;;;;;;;;;;;;;
2022/06/08 02:00:31;;;;;;;;;;;;;;;;;;;;;
2022/06/08 02:03:48;;;;;;;;;;;;;;;;;;;;;
2022/06/08 02:06:35;;;;;;;;;;;;;;;;;;;;;
2022/06/08 02:15:37;;;;;;;;;;;;;;;;;;;;;
2022/06/08 02:21:52;;;;;;;;;;;;;;;;;;;;;
2022/06/08 03:27:05;;;;;;;;;;;;;;;;;;;;;
2022/06/08 03:54:52;;;;;;;13.07;11.93;;;;;;;;;;5791402;24;20475;-84
2022/06/08 03:57:45;;;;;;;12.85;11.68;;;;;;;;;;5774460;24;20104;-82
2022/06/08 04:03:18;;;;;;;12.18;11.18;;;;;;;;;;5949313;24;20019;-83
2022/06/08 04:05:45;;;;;;;12.45;11.25;;;;;;;;;;6001586;23;20026;-82
2022/06/08 04:08:17;;;;;;;11.93;10.88;;;;;;;;;;6064768;23;20070;-83
2022/06/08 04:10:43;;;;;;;12.77;11.48;;;;;;;;;;6038966;23;20007;-83
2022/06/08 04:13:09;;;;;;;13.32;11.93;;;;;;;;;;6064561;23;20501;-81
2022/06/08 04:15:44;;;;;;;13.05;11.57;;;;;;;;;;6114832;23;20025;-83
2022/06/08 04:18:19;;;;;;;13.77;12.25;;;;;;;;;;6152353;23;20110;-84
2022/06/08 04:20:46;;;;;;;16.23;14.57;;;;;;;;;;6127621;23;20012;-85
2022/06/08 04:23:12;;;;;;;13.70;12.43;;;;;;;;;;6152348;23;20033;-82
2022/06/08 04:25:39;;;;;;;17.17;15.68;;;;;;;;;;6275442;22;20000;-84
2022/06/08 04:28:06;;;;;;;12.80;11.68;;;;;;;;;;6275660;22;20420;-85
2022/06/08 04:39:16;;;;;;;14.20;12.80;;;;;;;;;;6254028;22;20007;-81
2022/06/08 04:41:45;;;;;;;13.57;12.25;;;;;;;;;;6250291;22;20083;-83
2022/06/08 04:44:11;;;;;;;14.10;12.82;;;;;;;;;;6277431;22;20023;-82
2022/06/08 04:46:37;;;;;;;15.07;13.55;;;;;;;;;;6277555;22;20442;-83
2022/06/08 04:49:03;;;;;;;13.85;12.63;;;;;;;;;;6250389;22;20010;-82
2022/06/08 04:51:30;;;;;;;14.77;13.38;;;;;;;;;;6277267;22;20023;-82
2022/06/08 04:53:56;;;;;;;14.05;12.75;;;;;;;;;;6250351;22;20000;-84
2022/06/08 04:56:22;;;;;;;19.77;18.00;;;;;;;;;;6250277;22;20007;-84
2022/06/08 04:58:48;;;;;;;15.85;14.43;;;;;;;;;;6277791;22;20003;-83
2022/06/08 05:01:15;;;;;;;14.57;13.38;;;;;;;;;;6277298;22;20007;-82
2022/06/08 05:03:42;;;;;;;14.98;13.57;;;;;;;;;;6250483;22;20339;-81
2022/06/08 05:06:08;;;;;;;17.10;14.95;;;;;;;;;;6277354;22;20000;-81
2022/06/08 05:08:34;;;;;;;16.85;15.15;;;;;;;;;;6276871;22;20072;-82
2022/06/08 05:11:04;;;;;;;15.88;14.27;;;;;;;;;;6249953;22;20061;-81
2022/06/08 05:13:31;;;;;;;14.88;13.57;;;;;;;;;;6249456;22;20082;-81
2022/06/08 05:15:57;;;;;;;15.73;14.23;;;;;;;;;;6277116;22;20016;-82
2022/06/08 05:18:24;;;;;;;15.38;13.85;;;;;;;;;;6276675;22;20010;-83
2022/06/08 05:20:50;;;;;;;15.23;13.73;;;;;;;;;;6277642;22;20451;-81
2022/06/08 05:23:48;;;;;;;;;;;;;;;;;;;;;
2022/06/08 05:29:28;;;;;;;16.40;14.90;;;;;;;;;;6153968;23;20327;-83
2022/06/08 05:32:45;;;;;;;;;;;;;;;;;;;;;
2022/06/08 05:35:30;;;;;;;24.95;20.10;;;;;;;;;;6142867;23;20176;-82
2022/06/08 05:37:56;;;;;;;21.98;16.23;;;;;;;;;;6151763;23;20009;-81
2022/06/08 05:40:37;;;;;;;19.05;17.05;;;;;;;;;;6126489;23;20005;-82
2022/06/08 05:43:08;;;;;;;20.42;16.98;;;;;;;;;;6126321;23;20072;-78
2022/06/08 05:45:34;;;;;;;10.50;9.40;;;;;;;;;;6151607;23;20366;-79
2022/06/08 05:48:01;;;;;;;10.13;9.15;;;;;;;;;;6273174;22;20004;-79
2022/06/08 05:50:28;;;;;;;9.85;8.20;;;;;;;;;;6275418;22;20474;-79
2022/06/08 05:52:57;;;;;;;10.07;9.15;;;;;;;;;;6275791;22;20078;-82
2022/06/08 05:55:24;;;;;;;16.10;14.50;;;;;;;;;;6275860;22;20075;-79
2022/06/08 05:57:51;;;;;;;14.40;12.90;;;;;;;;;;6276263;22;20324;-80
2022/06/08 06:00:21;;;;;;;11.50;10.32;;;;;;;;;;6276525;22;20004;-79
2022/06/08 06:02:47;;;;;;;11.15;10.02;;;;;;;;;;6274847;22;20031;-79
2022/06/08 06:05:14;;;;;;;11.25;10.02;;;;;;;;;;6275899;22;20015;-78
2022/06/08 06:07:42;;;;;;;11.85;10.60;;;;;;;;;;6274430;22;20008;-78
2022/06/08 06:10:16;;;;;;;13.27;10.88;;;;;;;;;;6275394;22;20007;-79
2022/06/08 06:12:42;;;;;;;14.45;12.98;;;;;;;;;;6275709;22;20027;-80
2022/06/08 06:15:08;;;;;;;15.65;14.02;;;;;;;;;;6275845;22;20075;-79
2022/06/08 06:17:34;;;;;;;24.13;18.80;;;;;;;;;;6275222;22;20011;-82
2022/06/08 06:20:01;;;;;;;25.48;22.77;;;;;;;;;;6275276;22;20438;-79
2022/06/08 06:22:27;;;;;;;20.63;18.38;;;;;;;;;;6275813;22;20004;-78
2022/06/08 06:24:53;;;;;;;24.05;18.48;;;;;;;;;;6275655;22;20004;-78
2022/06/08 06:27:21;;;;;;;18.55;16.63;;;;;;;;;;6275974;22;20011;-78
2022/06/08 06:29:47;;;;;;;16.17;14.55;;;;;;;;;;6275725;22;20785;-78
2022/06/08 06:32:18;;;;;;;12.63;11.50;;;;;;;;;;6275734;22;20441;-79
2022/06/08 06:34:44;;;;;;;12.90;11.57;;;;;;;;;;6275394;22;20015;-79
2022/06/08 06:37:10;;;;;;;12.10;10.80;;;;;;;;;;6275563;22;20098;-79
2022/06/08 06:39:37;;;;;;;12.98;11.68;;;;;;;;;;6276166;22;20221;-82
2022/06/08 06:42:03;;;;;;;15.70;14.07;;;;;;;;;;6276093;22;20003;-79
2022/06/08 06:44:29;;;;;;;14.63;13.10;;;;;;;;;;6276308;22;20401;-80
2022/06/08 06:46:56;;;;;;;38.90;34.83;;;;;;;;;;6275338;22;20381;-79
2022/06/08 06:49:22;;;;;;;15.07;13.63;;;;;;;;;;6274972;22;20003;-82
2022/06/08 06:51:50;;;;;;;16.35;14.75;;;;;;;;;;6275937;22;20072;-83
2022/06/08 06:54:16;;;;;;;13.40;12.02;;;;;;;;;;6276037;22;20420;-81
2022/06/08 06:56:42;;;;;;;16.70;15.13;;;;;;;;;;6275411;22;20003;-80
2022/06/08 06:59:09;;;;;;;16.35;14.55;;;;;;;;;;6275597;22;20368;-83
2022/06/08 07:01:35;;;;;;;16.02;13.63;;;;;;;;;;6275018;22;20006;-83
2022/06/08 07:04:01;;;;;;;15.45;13.48;;;;;;;;;;6248017;22;20007;-82
2022/06/08 07:06:29;;;;;;;17.35;15.65;;;;;;;;;;6275038;22;20465;-82
2022/06/08 07:08:59;;;;;;;25.48;22.95;;;;;;;;;;6275454;22;20045;-78
2022/06/08 07:11:40;;;;;;;25.77;23.35;;;;;;;;;;6275126;22;20379;-75
2022/06/08 07:14:07;;;;;;;18.52;16.65;;;;;;;;;;6275784;22;20004;-80
2022/06/08 07:16:34;;;;;;;12.95;11.82;;;;;;;;;;6274847;22;20024;-83
2022/06/08 07:19:00;;;;;;;12.32;11.25;;;;;;;;;;6274405;22;20033;-82
2022/06/08 07:21:27;;;;;;;13.70;12.38;;;;;;;;;;6275421;22;20439;-80
2022/06/08 07:23:53;;;;;;;13.05;11.85;;;;;;;;;;6275307;22;20074;-81
2022/06/08 07:26:19;;;;;;;13.15;11.85;;;;;;;;;;6274975;22;20004;-81
2022/06/08 07:28:45;;;;;;;12.88;11.48;;;;;;;;;;6274753;22;20075;-82
2022/06/08 07:31:12;;;;;;;13.75;10.93;;;;;;;;;;6247187;22;20057;-81
2022/06/08 07:33:39;;;;;;;11.70;10.70;;;;;;;;;;6275162;22;20008;-81
2022/06/08 07:36:05;;;;;;;10.57;9.45;;;;;;;;;;6247756;22;20016;-80
2022/06/08 07:38:31;;;;;;;12.32;11.20;;;;;;;;;;6275480;22;20018;-81
2022/06/08 07:40:58;;;;;;;35.40;16.70;;;;;;;;;;6275342;22;20031;-82
2022/06/08 07:43:26;;;;;;;26.98;15.25;;;;;;;;;;6247205;22;20042;-85
2022/06/08 07:45:52;;;;;;;94.32;31.08;;;;;;;;;;6248248;22;20344;-83
2022/06/08 07:51:04;;;;;;;23.52;14.00;;;;;;;;;;6275030;22;20019;-81
2022/06/08 07:53:34;;;;;;;21.67;14.85;;;;;;;;;;6275511;22;20035;-80
2022/06/08 07:56:00;;;;;;;25.42;15.60;;;;;;;;;;6275024;22;20422;-83
2022/06/08 07:58:26;;;;;;;16.05;12.43;;;;;;;;;;6275423;22;20083;-81
2022/06/08 08:00:53;;;;;;;15.48;13.13;;;;;;;;;;6275377;22;20023;-82
2022/06/08 08:03:20;;;;;;;13.63;11.80;;;;;;;;;;6274207;22;20031;-82
2022/06/08 08:05:46;;;;;;;16.27;13.50;;;;;;;;;;6274882;22;20027;-79
2022/06/08 08:08:14;;;;;;;23.80;14.90;;;;;;;;;;6248431;22;20016;-80
2022/06/08 08:10:40;;;;;;;23.17;13.13;;;;;;;;;;6248352;22;20513;-81
2022/06/08 08:13:10;;;;;;;18.90;11.27;;;;;;;;;;6274412;22;20109;-81
2022/06/08 08:15:37;;;;;;;15.30;10.27;;;;;;;;;;6275269;22;20016;-80
2022/06/08 08:18:03;;;;;;;14.27;10.23;;;;;;;;;;6274260;22;20018;-82
2022/06/08 08:20:30;;;;;;;9.65;8.65;;;;;;;;;;6274266;22;20015;-81
2022/06/08 08:22:56;;;;;;;9.80;8.77;;;;;;;;;;6274510;22;20003;-81
2022/06/08 08:25:23;;;;;;;22.70;10.32;;;;;;;;;;6273271;22;20320;-79
2022/06/08 08:27:50;;;;;;;12.20;7.93;;;;;;;;;;6274394;22;20000;-80
2022/06/08 08:30:17;;;;;;;8.27;7.32;;;;;;;;;;6273938;22;20031;-75
2022/06/08 08:32:43;;;;;;;7.43;6.72;;;;;;;;;;6274823;22;20000;-79
2022/06/08 08:35:10;;;;;;;7.75;7.05;;;;;;;;;;6273880;22;20091;-78
2022/06/08 08:37:37;;;;;;;10.55;8.82;;;;;;;;;;6274484;22;20004;-82
2022/06/08 08:40:04;;;;;;;14.65;13.38;;;;;;;;;;6273913;22;20023;-81
2022/06/08 08:42:30;;;;;;;14.05;12.63;;;;;;;;;;6273151;22;20031;-81
2022/06/08 08:44:56;;;;;;;13.80;12.50;;;;;;;;;;6274700;22;20006;-81
2022/06/08 08:47:25;;;;;;;12.68;11.48;;;;;;;;;;6273899;22;20899;-80
2022/06/08 08:50:10;;;;;;;10.68;9.55;;;;;;;;;;6246959;22;20343;-80
2022/06/08 08:52:55;;;;;;;9.75;8.77;;;;;;;;;;6274145;22;20031;-75
2022/06/08 08:55:40;;;;;;;9.13;8.23;;;;;;;;;;6273392;22;20050;-67
2022/06/08 08:58:17;;;;;;;8.02;7.35;;;;;;;;;;6274233;22;20477;-80
2022/06/08 09:00:51;;;;;;;8.40;7.70;;;;;;;;;;6274259;22;20011;-78
2022/06/08 09:03:39;;;;;;;7.57;6.85;;;;;;;;;;6273811;22;20079;-81
2022/06/08 09:06:12;;;;;;;6.82;6.22;;;;;;;;;;6273621;22;20018;-80
2022/06/08 09:08:38;;;;;;;6.22;5.72;;;;;;;;;;6274332;22;20020;-80
2022/06/08 09:11:12;;;;;;;7.70;7.00;;;;;;;;;;6273756;22;20474;-80
2022/06/08 09:13:56;;;;;;;7.47;6.80;;;;;;;;;;6274382;22;19995;-80
2022/06/08 09:16:41;;;;;;;8.02;7.32;;;;;;;;;;6273812;22;20033;-81
2022/06/08 09:19:26;;;;;;;7.95;7.25;;;;;;;;;;6274847;22;20021;-79
2022/06/08 09:22:00;;;;;;;9.07;8.15;;;;;;;;;;6273999;22;20072;-79
2022/06/08 09:27:15;;;;;;;8.43;7.65;;;;;;;;;;6273795;22;20019;-81
2022/06/08 09:29:48;;;;;;;8.00;7.30;;;;;;;;;;6276586;22;20007;-82
2022/06/08 09:32:33;;;;;;;8.00;7.28;;;;;;;;;;6276397;22;20026;-80
2022/06/08 09:35:02;;;;;;;7.63;7.03;;;;;;;;;;6276660;22;20022;-81
2022/06/08 09:37:28;;;;;;;7.22;6.57;;;;;;;;;;6276382;22;20014;-80
2022/06/08 09:39:56;;;;;;;11.32;10.13;;;;;;;;;;6276306;22;20034;-80
2022/06/08 09:42:40;;;;;;;10.48;9.55;;;;;;;;;;6276619;22;20083;-81
2022/06/08 09:45:25;;;;;;;20.17;18.35;;;;;;;;;;6276749;22;20007;-79
2022/06/08 09:53:53;;;;;;;10.60;8.43;;;;;;;;;;6275427;22;20023;-82
2022/06/08 09:56:34;;;;;;;14.27;9.23;;;;;;;;;;6275218;22;20057;-83
2022/06/08 09:59:19;;;;;;;27.80;12.50;;;;;;;;;;6276105;22;20000;-83
2022/06/08 10:02:04;;;;;;;47.00;19.02;;;;;;;;;;6248255;22;20462;-82
2022/06/08 10:04:36;;;;;;;25.75;16.10;;;;;;;;;;6275760;22;20420;-82
2022/06/08 10:07:20;;;;;;;38.53;16.10;;;;;;;;;;6248412;22;20442;-83
2022/06/08 10:10:05;;;;;;;25.77;12.60;;;;;;;;;;6276109;22;20070;-82
2022/06/08 10:12:34;;;;;;;18.83;11.02;;;;;;;;;;6275863;22;20003;-81
2022/06/08 10:15:02;;;;;;;15.95;8.50;;;;;;;;;;6275070;22;20019;-81
2022/06/08 10:17:39;;;;;;;13.18;8.00;;;;;;;;;;6275895;22;20008;-83
2022/06/08 10:20:05;;;;;;;12.27;8.35;;;;;;;;;;6276031;22;20011;-82
2022/06/08 10:22:36;;;;;;;9.65;7.07;;;;;;;;;;6247646;22;20012;-81
2022/06/08 10:25:07;;;;;;;11.95;8.23;;;;;;;;;;6276270;22;20092;-83
2022/06/08 10:27:36;;;;;;;10.10;7.28;;;;;;;;;;6276100;22;20000;-82
2022/06/08 10:30:35;;;;;;;8.13;6.30;;;;;;;;;;6276310;22;20023;-82
2022/06/08 10:33:20;;;;;;;5.72;5.22;;;;;;;;;;6167630;22;20018;-85
2022/06/08 10:35:48;;;;;;;5.43;4.93;;;;;;;;;;6248499;22;20046;-83
2022/06/08 10:38:22;;;;;;;5.05;4.65;;;;;;;;;;6275696;22;20485;-83
2022/06/08 10:40:49;;;;;;;5.43;4.90;;;;;;;;;;6274639;22;20012;-83
2022/06/08 10:43:19;;;;;;;16.75;14.98;;;;;;;;;;6273380;22;20004;-83
2022/06/08 10:45:52;;;;;;;14.43;13.15;;;;;;;;;;6275069;22;20065;-85
2022/06/08 10:48:19;;;;;;;14.32;13.13;;;;;;;;;;6248173;22;20313;-81
2022/06/08 10:50:48;;;;;;;7.78;7.15;;;;;;;;;;6275455;22;20483;-82
2022/06/08 10:56:26;;;;;;;13.20;12.00;;;;;;;;;;6275528;22;20042;-83
2022/06/08 10:59:10;;;;;;;8.95;8.13;;;;;;;;;;6276692;22;20012;-81
2022/06/08 11:01:55;;;;;;;12.68;11.27;;;;;;;;;;6275626;22;20070;-84
2022/06/08 11:04:43;;;;;;;9.10;8.30;;;;;;;;;;6275307;22;20018;-81
2022/06/08 11:07:20;;;;;;;8.00;7.30;;;;;;;;;;6273762;22;20003;-82
2022/06/08 11:09:50;;;;;;;7.40;6.75;;;;;;;;;;6273742;22;20079;-82
2022/06/08 11:12:36;;;;;;;6.95;6.35;;;;;;;;;;6246574;22;20003;-84
2022/06/08 11:15:10;;;;;;;7.13;6.43;;;;;;;;;;6275280;22;20020;-75
2022/06/08 11:17:39;;;;;;;6.93;6.22;;;;;;;;;;6275452;22;20008;-83
2022/06/08 11:20:05;;;;;;;7.10;6.50;;;;;;;;;;6274565;22;20161;-81
2022/06/08 11:22:38;;;;;;;11.63;10.52;;;;;;;;;;6273073;22;20331;-80
2022/06/08 11:25:06;;;;;;;8.85;8.05;;;;;;;;;;6274871;22;20047;-80
2022/06/08 11:27:33;;;;;;;9.93;9.05;;;;;;;;;;6274558;22;20004;-81
2022/06/08 11:30:01;;;;;;;9.82;8.82;;;;;;;;;;6273986;22;20442;-79
2022/06/08 11:32:39;;;;;;;8.57;7.78;;;;;;;;;;6275473;22;20004;-80
2022/06/08 11:35:18;;;;;;;11.85;10.75;;;;;;;;;;6274851;22;20018;-80
2022/06/08 11:37:45;;;;;;;8.07;7.38;;;;;;;;;;6270875;22;20469;-82
2022/06/08 11:40:20;;;;;;;7.35;6.20;;;;;;;;;;6272433;22;20014;-82
2022/06/08 11:42:51;;;;;;;6.75;6.15;;;;;;;;;;6272847;22;20008;-76
2022/06/08 11:45:20;;;;;;;10.65;7.65;;;;;;;;;;6274402;22;20057;-82
2022/06/08 11:48:04;;;;;;;8.18;7.22;;;;;;;;;;6271280;22;20000;-84
2022/06/08 11:50:44;;;;;;;9.60;8.13;;;;;;;;;;6273861;22;20443;-81
2022/06/08 11:53:18;;;;;;;8.35;7.55;;;;;;;;;;6271960;22;20010;-82
2022/06/08 11:56:01;;;;;;;9.70;8.80;;;;;;;;;;6243698;22;20023;-82
2022/06/08 11:58:28;;;;;;;7.95;7.20;;;;;;;;;;6274110;22;20070;-85
2022/06/08 12:00:59;;;;;;;11.45;10.32;;;;;;;;;;6272671;22;20006;-85
2022/06/08 12:03:42;;;;;;;8.05;7.35;;;;;;;;;;6273627;22;20011;-81
2022/06/08 12:06:28;;;;;;;8.77;8.07;;;;;;;;;;6273626;22;20012;-83
2022/06/08 12:09:15;;;;;;;7.97;7.20;;;;;;;;;;6271458;22;20455;-81
2022/06/08 12:11:55;;;;;;;6.85;6.35;;;;;;;;;;6245164;22;20008;-82
2022/06/08 12:14:40;;;;;;;7.65;7.03;;;;;;;;;;6272980;22;20018;-84
2022/06/08 12:17:12;;;;;;;16.83;15.25;;;;;;;;;;6205840;23;20091;-83
2022/06/08 12:19:42;;;;;;;8.60;7.88;;;;;;;;;;6214526;23;20012;-82
2022/06/08 12:22:11;;;;;;;8.95;8.15;;;;;;;;;;6242968;23;20059;-80
2022/06/08 12:24:37;;;;;;;8.02;7.32;;;;;;;;;;6244886;23;20008;-82
2022/06/08 12:27:14;;;;;;;8.02;7.22;;;;;;;;;;6243709;23;20013;-81
2022/06/08 12:29:47;;;;;;;7.95;7.25;;;;;;;;;;6240467;23;20042;-82
2022/06/08 12:32:16;;;;;;;8.27;7.47;;;;;;;;;;6241000;23;20138;-80
2022/06/08 12:34:50;;;;;;;10.70;9.90;;;;;;;;;;6242323;23;20249;-82
2022/06/08 12:37:29;;;;;;;8.60;7.78;;;;;;;;;;6243044;23;20000;-83
2022/06/08 12:39:56;;;;;;;7.65;6.95;;;;;;;;;;6241259;23;20004;-84
2022/06/08 12:42:41;;;;;;;7.70;6.90;;;;;;;;;;6212573;23;20467;-81
2022/06/08 12:45:23;;;;;;;8.10;7.43;;;;;;;;;;6243003;23;20023;-82
2022/06/08 12:47:50;;;;;;;9.85;8.98;;;;;;;;;;6240412;23;20336;-82
2022/06/08 12:50:23;;;;;;;8.88;8.13;;;;;;;;;;6241559;23;20000;-81
2022/06/08 12:52:49;;;;;;;10.63;9.70;;;;;;;;;;6241120;23;20000;-83
2022/06/08 12:55:25;;;;;;;11.15;10.15;;;;;;;;;;6242453;23;20016;-82
2022/06/08 12:57:52;;;;;;;10.70;8.88;;;;;;;;;;6215897;23;20030;-81
2022/06/08 13:00:20;;;;;;;23.58;21.63;;;;;;;;;;6243058;23;20000;-84
2022/06/08 13:02:46;;;;;;;78.03;71.25;;;;;;;;;;6242625;23;20000;-83
2022/06/08 13:05:21;;;;;;;22.98;21.02;;;;;;;;;;6244167;23;20000;-84
2022/06/08 13:07:48;;;;;;;16.63;15.05;;;;;;;;;;6218558;23;20012;-83
2022/06/08 13:10:16;;;;;;;17.20;15.57;;;;;;;;;;6218960;23;20004;-85
2022/06/08 13:13:03;;;;;;;28.45;25.90;;;;;;;;;;6217263;23;20018;-86
2022/06/08 13:15:31;;;;;;;11.38;10.27;;;;;;;;;;6256422;22;20077;-86
2022/06/08 13:21:39;;;;;;;8.80;7.95;;;;;;;;;;6211690;22;20026;-88
2022/06/08 13:30:25;;;;;;;18.98;17.08;;;;;;;;;;6228990;22;20035;-90
2022/06/08 13:32:52;;;;;;;8.23;7.53;;;;;;;;;;6251079;22;20031;-87
2022/06/08 13:35:36;;;;;;;13.02;7.28;;;;;;;;;;6252610;22;20031;-88
2022/06/08 13:38:03;;;;;;;8.32;7.47;;;;;;;;;;6253347;22;20083;-87
2022/06/08 13:40:30;;;;;;;7.90;7.20;;;;;;;;;;6250066;22;20053;-89
2022/06/08 13:42:59;;;;;;;7.25;6.65;;;;;;;;;;6251317;22;20038;-91
2022/06/08 13:45:30;;;;;;;11.45;10.27;;;;;;;;;;6251677;22;20487;-91
2022/06/08 13:48:02;;;;;;;8.98;8.10;;;;;;;;;;6251247;22;20327;-90
2022/06/08 13:50:30;;;;;;;8.30;7.55;;;;;;;;;;6277534;22;20010;-90
2022/06/08 13:53:06;;;;;;;7.47;6.72;;;;;;;;;;6249817;22;20039;-88
2022/06/08 13:58:40;;;;;;;30.92;28.15;;;;;;;;;;6206813;22;19999;-90
2022/06/08 14:01:29;;;;;;;14.18;11.40;;;;;;;;;;6277496;22;20086;-85
2022/06/08 14:15:48;;;;;;;9.85;8.85;;;;;;;;;;6277453;22;20074;-89
2022/06/08 14:18:18;;;;;;;9.25;8.45;;;;;;;;;;6277124;22;20335;-88
2022/06/08 14:24:11;;;;;;;9.70;8.90;;;;;;;;;;6130749;23;20036;-87
2022/06/08 14:26:39;;;;;;;9.57;8.77;;;;;;;;;;6177815;23;20016;-87
2022/06/08 14:29:05;;;;;;;9.43;8.63;;;;;;;;;;6188174;23;20060;-85
2022/06/08 14:31:50;;;;;;;10.07;9.07;;;;;;;;;;6212882;23;20448;-87
2022/06/08 14:34:35;;;;;;;8.65;7.93;;;;;;;;;;6196670;22;20105;-86
2022/06/08 14:37:10;;;;;;;10.38;8.82;;;;;;;;;;6250305;22;20008;-87
2022/06/08 14:39:37;;;;;;;8.20;7.40;;;;;;;;;;6276430;22;20038;-86
2022/06/08 14:42:04;;;;;;;9.23;8.30;;;;;;;;;;6279188;22;20067;-87
2022/06/08 14:44:32;;;;;;;8.90;8.10;;;;;;;;;;6252580;22;20035;-88
2022/06/08 14:47:01;;;;;;;8.88;8.15;;;;;;;;;;6250411;22;20090;-87
2022/06/08 14:49:30;;;;;;;11.35;9.57;;;;;;;;;;6276483;22;20415;-87
2022/06/08 14:51:56;;;;;;;8.57;7.88;;;;;;;;;;6249158;22;20008;-87
2022/06/08 14:54:24;;;;;;;9.63;8.73;;;;;;;;;;6249966;22;20446;-85
2022/06/08 14:57:10;;;;;;;10.27;9.35;;;;;;;;;;6249266;22;20095;-86
2022/06/08 15:00:09;;;;;;;9.55;8.68;;;;;;;;;;6249736;22;20493;-89
2022/06/08 15:02:37;;;;;;;9.05;8.15;;;;;;;;;;6263269;22;20003;-85
2022/06/08 15:07:57;;;;;;;9.23;8.43;;;;;;;;;;6275859;22;20470;-86
2022/06/08 15:13:35;;;;;;;6.53;5.88;;;;;;;;;;6275981;22;20098;-87
2022/06/08 15:16:01;;;;;;;4.25;3.65;;;;;;;;;;6222373;22;20086;-85
2022/06/08 15:18:31;;;;;;;5.85;3.88;;;;;;;;;;6246489;22;20031;-84
2022/06/08 15:20:59;;;;;;;4.63;3.72;;;;;;;;;;6276209;22;20034;-85
2022/06/08 15:23:47;;;;;;;5.03;3.40;;;;;;;;;;6275761;22;20006;-86
2022/06/08 15:26:22;;;;;;;4.45;3.75;;;;;;;;;;6274383;22;20453;-85
2022/06/08 15:28:50;;;;;;;4.78;4.10;;;;;;;;;;6275965;22;19996;-83
2022/06/08 15:31:19;;;;;;;7.38;3.83;;;;;;;;;;6275566;22;20030;-82
2022/06/08 15:33:45;;;;;;;6.78;4.53;;;;;;;;;;6275431;22;20435;-85
2022/06/08 15:36:18;;;;;;;4.97;3.42;;;;;;;;;;6274516;22;20347;-85
2022/06/08 15:38:55;;;;;;;5.25;3.50;;;;;;;;;;6248101;22;20072;-82
2022/06/08 15:41:23;;;;;;;4.28;3.40;;;;;;;;;;6275457;22;19996;-83
2022/06/08 15:43:49;;;;;;;4.72;3.42;;;;;;;;;;6248798;22;20015;-85
2022/06/08 15:46:19;;;;;;;6.78;3.55;;;;;;;;;;6249177;22;20004;-83
2022/06/08 15:48:50;;;;;;;5.30;3.80;;;;;;;;;;6248313;22;20008;-87
2022/06/08 15:51:17;;;;;;;3.92;3.13;;;;;;;;;;6275825;22;20027;-83
2022/06/08 15:54:02;;;;;;;4.40;3.30;;;;;;;;;;6275441;22;20057;-84
2022/06/08 15:56:30;;;;;;;3.53;3.22;;;;;;;;;;6275817;22;20007;-87
2022/06/08 15:58:59;;;;;;;3.75;2.95;;;;;;;;;;6222579;22;20038;-88
2022/06/08 16:01:26;;;;;;;12.95;10.30;;;;;;;;;;6248319;22;20004;-91
2022/06/08 16:03:54;;;;;;;9.27;8.23;;;;;;;;;;6248853;22;20477;-86
2022/06/08 16:06:21;;;;;;;4.68;3.30;;;;;;;;;;6248645;22;19996;-84
2022/06/08 16:08:47;;;;;;;4.43;2.85;;;;;;;;;;6275420;22;20436;-84
2022/06/08 16:11:13;;;;;;;3.40;2.95;;;;;;;;;;6275614;22;20045;-82
2022/06/08 16:13:39;;;;;;;9.50;7.97;;;;;;;;;;6275182;22;20003;-85
2022/06/08 16:16:06;;;;;;;3.42;2.65;;;;;;;;;;6275918;22;20030;-81
2022/06/08 16:18:39;;;;;;;3.63;2.97;;;;;;;;;;6275574;22;20003;-85
2022/06/08 16:21:05;;;;;;;4.43;3.13;;;;;;;;;;6248255;22;20134;-85
2022/06/08 16:23:32;;;;;;;5.28;3.10;;;;;;;;;;6275508;22;20004;-84
2022/06/08 16:25:59;;;;;;;3.97;3.30;;;;;;;;;;6275630;22;20004;-84
2022/06/08 16:28:27;;;;;;;5.75;4.13;;;;;;;;;;6275335;22;20000;-87
2022/06/08 16:34:03;;;;;;;6.80;4.43;;;;;;;;;;6261654;22;20450;-87
2022/06/08 16:36:29;;;;;;;5.45;3.50;;;;;;;;;;6249727;22;20012;-86
2022/06/08 16:39:16;;;;;;;5.43;4.10;;;;;;;;;;6251706;22;20008;-84
2022/06/08 16:41:44;;;;;;;6.88;3.83;;;;;;;;;;6276914;22;20007;-82
2022/06/08 16:44:11;;;;;;;5.80;4.28;;;;;;;;;;6275887;22;20004;-86
2022/06/08 16:46:37;;;;;;;5.38;4.15;;;;;;;;;;6250763;22;20003;-85
2022/06/08 16:49:04;;;;;;;8.63;7.72;;;;;;;;;;6249605;22;20431;-84
2022/06/08 16:51:30;;;;;;;4.80;3.70;;;;;;;;;;6277585;22;19999;-85
2022/06/08 16:53:56;;;;;;;5.30;4.22;;;;;;;;;;6277125;22;20011;-85
2022/06/08 16:59:36;;;;;;;9.30;8.35;;;;;;;;;;6277275;22;20364;-87
2022/06/08 17:01:53;;;;;;;5.50;4.25;;;;;;;;;;6277162;22;20018;-85
2022/06/08 17:04:20;;;;;;;5.53;4.28;;;;;;;;;;6277738;22;20007;-84
2022/06/08 17:06:46;;;;;;;5.05;4.18;;;;;;;;;;6249844;22;20004;-88
2022/06/08 17:09:13;;;;;;;6.05;3.92;;;;;;;;;;6277828;22;19999;-85
2022/06/08 17:11:46;;;;;;;5.20;4.22;;;;;;;;;;6250137;22;20008;-83
2022/06/08 17:14:13;;;;;;;5.05;4.45;;;;;;;;;;6277286;22;19999;-84
2022/06/08 17:16:39;;;;;;;6.68;4.38;;;;;;;;;;6277096;22;20020;-86
2022/06/08 17:19:05;;;;;;;7.40;4.43;;;;;;;;;;6250313;22;20030;-84
2022/06/08 17:21:32;;;;;;;4.82;3.70;;;;;;;;;;6277244;22;20010;-85
2022/06/08 17:23:58;;;;;;;3.80;3.05;;;;;;;;;;6276236;22;20014;-83
2022/06/08 17:26:26;;;;;;;3.63;2.35;;;;;;;;;;6250110;22;19996;-86
2022/06/08 17:28:53;;;;;;;3.28;2.05;;;;;;;;;;6276736;22;20000;-83
2022/06/08 17:31:20;;;;;;;4.88;2.20;;;;;;;;;;6277169;22;19996;-86
2022/06/08 17:33:46;;;;;;;3.65;2.22;;;;;;;;;;6249647;22;20393;-85
2022/06/08 17:36:12;;;;;;;3.83;2.00;;;;;;;;;;6276617;22;20403;-87
2022/06/08 17:38:39;;;;;;;2.63;2.28;;;;;;;;;;6277758;22;20014;-85
2022/06/08 17:41:07;;;;;;;3.67;2.85;;;;;;;;;;6276873;22;19996;-84
2022/06/08 17:43:34;;;;;;;2.78;2.47;;;;;;;;;;6276775;22;20424;-86
2022/06/08 17:46:00;;;;;;;4.57;2.58;;;;;;;;;;6249717;22;20007;-85
2022/06/08 17:48:26;;;;;;;3.42;2.55;;;;;;;;;;6276695;22;20008;-88
2022/06/08 17:50:52;;;;;;;3.78;2.10;;;;;;;;;;6250184;22;20335;-86
2022/06/08 17:53:36;;;;;;;4.40;2.50;;;;;;;;;;6277127;22;20015;-85
2022/06/08 17:56:03;;;;;;;4.25;2.70;;;;;;;;;;6249768;22;20016;-86
2022/06/08 17:58:29;;;;;;;6.28;3.10;;;;;;;;;;6250203;22;20012;-85
2022/06/08 18:01:00;;;;;;;3.67;2.03;;;;;;;;;;6250029;22;20000;-84
2022/06/08 18:03:26;;;;;;;4.72;2.80;;;;;;;;;;6250074;22;19996;-86
2022/06/08 18:05:53;;;;;;;3.90;3.03;;;;;;;;;;6277247;22;20003;-87
2022/06/08 18:08:20;;;;;;;7.63;3.53;;;;;;;;;;6251347;22;20015;-85
2022/06/08 18:10:46;;;;;;;5.72;3.95;;;;;;;;;;6250050;22;20002;-86
2022/06/08 18:13:12;;;;;;;3.47;3.17;;;;;;;;;;6277399;22;19999;-84
2022/06/08 18:15:39;;;;;;;4.53;4.07;;;;;;;;;;6249351;22;20023;-88
2022/06/08 18:18:06;;;;;;;4.75;3.00;;;;;;;;;;6277021;22;20073;-90
2022/06/08 18:20:51;;;;;;;12.30;11.00;;;;;;;;;;6251043;22;20004;-86
2022/06/08 18:23:18;;;;;;;11.98;8.52;;;;;;;;;;6252741;22;20007;-87
2022/06/08 18:25:45;;;;;;;5.18;4.35;;;;;;;;;;6252420;22;20007;-87
2022/06/08 18:28:29;;;;;;;4.28;2.40;;;;;;;;;;6251944;22;20000;-89
2022/06/08 18:31:36;;;;;;;2.88;2.28;;;;;;;;;;6250500;22;20427;-85
2022/06/08 18:34:04;;;;;;;4.00;2.08;;;;;;;;;;6274433;22;20004;-84
2022/06/08 18:36:33;;;;;;;3.47;2.05;;;;;;;;;;6249140;22;20383;-83
2022/06/08 18:38:59;;;;;;;4.13;1.98;;;;;;;;;;6249651;22;20015;-87
2022/06/08 18:41:55;;;;;;;4.57;3.13;;;;;;;;;;6278193;22;20069;-83
2022/06/08 18:44:20;;;;;;;3.97;1.90;;;;;;;;;;6275706;22;20042;-85
2022/06/08 18:46:46;;;;;;;5.75;1.98;;;;;;;;;;6250002;22;20015;-86
2022/06/08 18:49:26;;;;;;;;;;;;;;;;;;;;;
2022/06/08 18:51:53;;;;;;;4.13;1.90;;;;;;;;;;6276702;22;20076;-84
2022/06/08 18:54:19;;;;;;;3.75;2.10;;;;;;;;;;6249500;22;20018;-84
2022/06/08 18:56:46;;;;;;;2.80;1.48;;;;;;;;;;6249245;22;19995;-85
2022/06/08 18:59:13;;;;;;;4.03;2.25;;;;;;;;;;6248901;22;20000;-81
2022/06/08 19:01:39;;;;;;;4.13;1.88;;;;;;;;;;6277340;22;20010;-83
2022/06/08 19:04:06;;;;;;;2.53;1.48;;;;;;;;;;6278633;22;20323;-83
2022/06/08 19:06:36;;;;;;;3.20;2.38;;;;;;;;;;6280208;22;20004;-87
2022/06/08 19:09:06;;;;;;;4.70;2.83;;;;;;;;;;6279547;22;20003;-87
2022/06/08 19:11:32;;;;;;;3.22;2.17;;;;;;;;;;6255111;22;20008;-88
2022/06/08 19:14:18;;;;;;;4.28;2.60;;;;;;;;;;6279758;22;19999;-84
2022/06/08 19:17:05;;;;;;;6.95;5.30;;;;;;;;;;6278414;22;20012;-84
2022/06/08 19:22:24;;;;;;;5.45;2.42;;;;;;;;;;6278381;22;20015;-88
2022/06/08 19:24:50;;;;;;;3.60;2.25;;;;;;;;;;6250961;22;20000;-87
2022/06/08 19:27:16;;;;;;;2.63;1.70;;;;;;;;;;6277880;22;20007;-88
2022/06/08 19:29:46;;;;;;;4.63;2.40;;;;;;;;;;6279174;22;19996;-84
2022/06/08 19:32:13;;;;;;;4.57;1.98;;;;;;;;;;6253089;22;20056;-83
2022/06/08 19:34:59;;;;;;;8.75;6.60;;;;;;;;;;6251684;22;20086;-89
2022/06/08 19:37:28;;;;;;;5.22;2.00;;;;;;;;;;6250531;22;20010;-86
2022/06/08 19:40:14;;;;;;;5.68;5.07;;;;;;;;;;6253409;22;20008;-89
2022/06/08 19:43:04;;;;;;;30.38;26.90;;;;;;;;;;6279432;22;20000;-87
2022/06/08 19:45:49;;;;;;;6.57;4.10;;;;;;;;;;6231331;22;20003;-86